Salome, Arizona
Current Conditions -  °F | °C
As of 10:35 PM on Thursday 27 Nov 2014 (Local Time) from KBXK Reporting Station
Clear Clear  
Wind Chill: 54°   Ceiling: Unl
Heat Index: 54°   Visibility: 10mi
Dew Point: 18°   Wind: 7mph
Humidity: 24%   Direction: 350°N
Pressure: 30.07"   Gusts: NA
Location:  33.78°N, 113.62°W
Report Text: KBXK 280535Z AUTO 35006KT 10SM CLR 12/M08 A3007 RMK AO1
Loading
Personal Weather Stations






























Interactive Weather Map New forecast layout! Learn more

10-Day Weather Forecast

Advertisements
Track Severe Weather on mobile